createdAt,value
2018-07-10T11:04:04.330Z,18.69
2018-07-10T11:07:16.560Z,18.88
2018-07-10T11:10:29.486Z,19.09
2018-07-10T11:13:36.534Z,18.90
2018-07-10T11:16:41.306Z,18.82
2018-07-10T11:19:55.520Z,18.98
2018-07-10T11:23:05.211Z,19.42
2018-07-10T11:26:12.167Z,19.40
2018-07-10T11:29:15.769Z,19.20
2018-07-10T11:32:19.267Z,19.92
2018-07-10T11:35:23.025Z,20.58
2018-07-10T11:38:26.718Z,20.14
2018-07-10T11:41:31.319Z,20.98
2018-07-10T11:44:34.895Z,20.23
2018-07-10T11:47:42.537Z,20.07
2018-07-10T11:50:46.742Z,19.56
2018-07-10T11:53:50.129Z,19.85
2018-07-10T11:56:53.926Z,19.70
2018-07-10T11:59:57.685Z,19.82
2018-07-10T12:03:03.572Z,19.62
2018-07-10T12:06:07.317Z,19.04
2018-07-10T12:09:10.473Z,19.13
2018-07-10T12:12:13.937Z,19.43
2018-07-10T12:15:17.385Z,19.76
2018-07-10T12:18:20.591Z,19.34
2018-07-10T12:21:24.121Z,18.94
2018-07-10T12:24:27.670Z,18.54
2018-07-10T12:27:31.393Z,18.53
2018-07-10T12:30:35.659Z,18.65
2018-07-10T12:33:39.947Z,18.82
2018-07-10T12:36:42.998Z,18.64
2018-07-10T12:39:46.089Z,19.08
2018-07-10T12:42:50.558Z,19.15
2018-07-10T12:45:54.020Z,18.98
2018-07-10T12:48:57.322Z,19.31
2018-07-10T12:52:01.037Z,19.49
2018-07-10T12:55:04.518Z,19.25
2018-07-10T12:58:09.109Z,19.47
2018-07-10T13:01:12.640Z,19.76
2018-07-10T13:04:16.027Z,20.17
2018-07-10T13:07:19.481Z,19.75
2018-07-10T13:10:22.948Z,19.76
2018-07-10T13:13:27.365Z,19.29
2018-07-10T13:16:31.107Z,19.92
2018-07-10T13:19:35.373Z,19.31
2018-07-10T13:22:38.949Z,19.34
2018-07-10T13:25:42.131Z,19.70
2018-07-10T13:28:45.355Z,20.49
2018-07-10T13:32:51.497Z,21.23
2018-07-10T13:35:54.912Z,20.76
2018-07-10T13:38:59.091Z,20.00
2018-07-10T13:42:02.457Z,20.34
2018-07-10T13:45:06.169Z,19.71
2018-07-10T13:48:09.634Z,19.45
2018-07-10T13:51:13.236Z,19.64
2018-07-10T13:54:16.677Z,19.65
2018-07-10T13:57:19.722Z,19.43
2018-07-10T14:00:23.042Z,19.20
2018-07-10T14:03:26.341Z,19.45
2018-07-10T14:06:29.871Z,19.29
2018-07-10T14:09:33.406Z,19.58
2018-07-10T14:12:36.914Z,19.77
2018-07-10T14:15:40.693Z,20.06
2018-07-10T14:18:44.294Z,19.96
2018-07-10T14:21:47.949Z,19.72
2018-07-10T14:24:51.430Z,19.40
2018-07-10T14:27:55.127Z,19.57
2018-07-10T14:30:58.184Z,19.70
2018-07-10T14:34:01.450Z,19.49
2018-07-10T14:37:05.431Z,19.12
2018-07-10T14:40:09.297Z,19.29
2018-07-10T14:43:14.765Z,19.10
2018-07-10T14:46:24.121Z,18.82
2018-07-10T14:49:27.365Z,19.06
2018-07-10T14:52:30.658Z,18.92
2018-07-10T14:55:34.317Z,18.91
2018-07-10T14:58:37.493Z,18.78
2018-07-10T15:01:41.051Z,18.68
2018-07-10T15:04:44.478Z,18.74
2018-07-10T15:07:48.089Z,18.70
2018-07-10T15:10:51.379Z,18.55
2018-07-10T15:14:04.296Z,18.52
2018-07-10T15:17:13.386Z,18.68
2018-07-10T15:20:16.833Z,18.89
2018-07-10T15:23:20.307Z,18.96
2018-07-10T15:26:24.291Z,19.01
2018-07-10T15:29:29.712Z,18.73
2018-07-10T15:32:32.745Z,18.74
2018-07-10T15:35:36.032Z,18.72
2018-07-10T15:38:39.585Z,18.62
2018-07-10T15:41:42.989Z,18.46
2018-07-10T15:44:46.342Z,18.40
2018-07-10T15:47:49.794Z,18.13
2018-07-10T15:50:53.159Z,18.04
2018-07-10T15:53:56.514Z,17.71
2018-07-10T15:57:00.201Z,17.76
2018-07-10T16:00:06.185Z,17.70
2018-07-10T16:03:09.434Z,17.44
2018-07-10T16:06:12.716Z,17.02
2018-07-10T16:09:20.365Z,17.10
2018-07-10T16:12:24.554Z,16.91
2018-07-10T16:15:27.879Z,16.79
2018-07-10T16:18:32.103Z,16.57
2018-07-10T16:21:50.524Z,16.42
2018-07-10T16:25:03.783Z,16.22
2018-07-10T16:28:09.386Z,16.33
2018-07-10T16:31:14.499Z,16.46
2018-07-10T16:34:19.680Z,16.71
2018-07-10T16:37:23.822Z,16.87
2018-07-10T16:40:32.111Z,17.20
2018-07-10T16:43:35.297Z,17.22
2018-07-10T16:46:39.655Z,17.37
2018-07-10T16:49:44.953Z,17.42
2018-07-10T16:52:54.039Z,17.41
2018-07-10T16:55:57.367Z,17.65
2018-07-10T16:59:07.521Z,19.41
2018-07-10T17:02:12.942Z,20.59
2018-07-10T17:05:18.656Z,19.17
2018-07-10T17:08:22.075Z,18.09
2018-07-10T17:11:25.347Z,17.63
2018-07-10T17:14:28.597Z,17.45
2018-07-10T17:17:31.862Z,17.52
2018-07-10T17:20:35.286Z,17.69
2018-07-10T17:23:38.796Z,17.59
2018-07-10T17:26:41.989Z,17.50
2018-07-10T17:30:02.995Z,17.70
2018-07-10T17:33:06.412Z,18.02
2018-07-10T17:36:09.856Z,17.88
2018-07-10T17:39:13.253Z,17.80
2018-07-10T17:42:16.679Z,17.77
2018-07-10T17:45:22.047Z,17.63
2018-07-10T17:48:25.279Z,17.52
2018-07-10T17:51:28.563Z,17.54
2018-07-10T17:54:31.980Z,17.69
2018-07-10T17:57:35.345Z,17.81
2018-07-10T18:00:38.566Z,17.82
2018-07-10T18:03:41.789Z,17.70
2018-07-10T18:06:45.260Z,17.69
2018-07-10T18:09:48.833Z,17.63
2018-07-10T18:12:55.465Z,17.63
2018-07-10T18:15:58.893Z,17.59
2018-07-10T18:19:03.168Z,17.55
2018-07-10T18:22:06.531Z,17.52
2018-07-10T18:25:10.172Z,17.48
2018-07-10T18:28:13.791Z,17.44
2018-07-10T18:31:16.999Z,17.40
2018-07-10T18:34:20.201Z,17.36
2018-07-10T18:37:23.537Z,17.24
2018-07-10T18:40:26.800Z,17.08
2018-07-10T18:43:30.254Z,16.83
2018-07-10T18:46:33.558Z,16.81
2018-07-10T18:49:36.857Z,16.68
2018-07-10T18:52:40.159Z,16.36
2018-07-10T18:55:43.646Z,16.18
2018-07-10T18:59:18.689Z,16.14
2018-07-10T19:02:48.169Z,16.09
2018-07-10T19:05:55.040Z,16.00
2018-07-10T19:08:58.097Z,15.94
2018-07-10T19:12:03.008Z,15.93
2018-07-10T19:15:07.092Z,15.79
2018-07-10T19:18:11.131Z,14.97
2018-07-10T19:21:31.164Z,14.56
2018-07-10T19:24:35.674Z,14.54
2018-07-10T19:27:39.949Z,14.53
2018-07-10T19:30:50.462Z,14.60
2018-07-10T19:33:55.832Z,14.61
2018-07-10T19:36:59.125Z,14.60
2018-07-10T19:40:02.437Z,14.65
2018-07-10T19:43:05.731Z,14.66
2018-07-10T19:46:10.194Z,14.60
2018-07-10T19:49:16.571Z,14.49
2018-07-10T19:52:20.259Z,14.48
2018-07-10T19:55:25.348Z,14.49
2018-07-10T19:58:33.834Z,14.48
2018-07-10T20:01:57.710Z,14.48
2018-07-10T20:05:03.522Z,14.46
2018-07-10T20:08:12.531Z,14.49
2018-07-10T20:11:25.797Z,14.27
2018-07-10T20:14:32.811Z,14.14
2018-07-10T20:17:44.606Z,14.12
2018-07-10T20:21:01.685Z,14.07
2018-07-10T20:24:15.678Z,14.02
2018-07-10T20:27:54.546Z,13.98
2018-07-10T20:31:04.204Z,13.94
2018-07-10T20:34:10.782Z,13.93
2018-07-10T20:37:24.867Z,13.95
2018-07-10T20:40:32.460Z,13.92
2018-07-10T20:43:39.325Z,13.97
2018-07-10T20:46:46.959Z,13.89
2018-07-10T20:50:02.559Z,13.84
2018-07-10T20:53:15.208Z,13.78
2018-07-10T20:56:41.925Z,13.77
2018-07-10T20:59:45.649Z,13.73
2018-07-10T21:03:00.313Z,13.69
2018-07-10T21:08:19.912Z,13.69
2018-07-10T21:11:32.399Z,13.60
2018-07-10T21:15:16.444Z,13.51
2018-07-10T21:21:11.489Z,13.38
2018-07-10T21:24:24.797Z,13.36
2018-07-10T21:29:44.320Z,13.30
2018-07-10T21:33:03.766Z,13.19
2018-07-10T21:36:17.426Z,13.14
2018-07-10T21:39:32.253Z,13.07
2018-07-10T21:44:54.014Z,13.04
2018-07-10T21:48:11.630Z,12.99
2018-07-10T21:51:14.769Z,12.97
2018-07-10T21:54:17.939Z,12.91
2018-07-10T21:57:25.816Z,12.87
2018-07-10T22:02:46.977Z,12.81
2018-07-10T22:05:50.194Z,12.77
2018-07-10T22:08:53.552Z,12.73
2018-07-10T22:11:59.076Z,12.68
2018-07-10T22:15:02.463Z,12.61
2018-07-10T22:18:05.726Z,12.58
2018-07-10T22:21:08.828Z,12.60
2018-07-10T22:24:12.058Z,12.66
2018-07-10T22:27:15.293Z,12.74
2018-07-10T22:30:24.147Z,12.70
2018-07-10T22:33:27.356Z,12.64
2018-07-10T22:36:30.828Z,12.63
2018-07-10T22:39:34.141Z,12.62
2018-07-10T22:42:37.524Z,12.57
2018-07-10T22:45:40.761Z,12.57
2018-07-10T22:48:44.061Z,12.59
2018-07-10T22:51:47.279Z,12.66
2018-07-10T22:54:50.331Z,12.70
2018-07-10T22:58:02.325Z,12.56
2018-07-10T23:01:05.533Z,12.45
2018-07-10T23:04:08.995Z,12.34
2018-07-10T23:07:12.051Z,12.22
2018-07-10T23:10:15.202Z,12.09
2018-07-10T23:13:18.845Z,11.97
2018-07-10T23:16:21.936Z,12.03
2018-07-10T23:19:25.344Z,11.99
2018-07-10T23:23:00.189Z,11.95
2018-07-10T23:26:03.352Z,12.03
2018-07-10T23:29:06.725Z,12.06
2018-07-10T23:32:09.999Z,12.09
2018-07-10T23:35:13.236Z,12.22
2018-07-10T23:38:28.005Z,12.38
2018-07-10T23:41:36.320Z,12.47
2018-07-10T23:44:42.730Z,12.36
2018-07-10T23:47:49.880Z,12.18
2018-07-10T23:50:53.247Z,12.07
2018-07-10T23:53:56.362Z,11.91
2018-07-10T23:56:59.534Z,11.76
